Latest Coastal Weather Observations for Hamilton Island

IDQ60701

Issued at 9:42 pm EST Friday 26 April 2019 (issued every 10 minutes, with the page automatically refreshed every 10 minutes)

About coastal observations | Map of coastal stations | Coastal observations for QLD | Marine services | Other Formats
Station Details ID: 033106 Name: HAMILTON ISLAND AIRPORT Lat: -20.37 Lon: 148.95 Height: 58.66 m
Data from the previous 72 hours. | See also: Recent months at Hamilton Island
Date/Time
EST
Wind Sea
Height
m
Swell Vis
km
Cloud Weather Temp
°C
Press
hPa
Rain since
9am
mm
Dir  Spd
kts
Gust
kts
Height
m
Period
s
Dir
26/09:30pm SE 10 12 - - - - 10 Partly cloudy - 24.4 1014.7 0.0
26/09:00pm SE 11 13 - - - - 10 - - 24.4 1014.5 0.0
26/08:30pm ESE 12 15 - - - - 10 Partly cloudy - 24.5 1014.3 0.0
26/08:28pm ESE 13 15 - - - - 10 Partly cloudy - 24.5 1014.2 0.0
26/08:00pm SE 13 15 - - - - 10 Partly cloudy - 24.7 1013.9 0.0
26/07:30pm SE 10 12 - - - - 10 Partly cloudy - 24.6 1013.6 0.0
26/07:00pm SE 11 14 - - - - 10 Partly cloudy - 24.6 1013.3 0.0
26/06:30pm ESE 12 14 - - - - 10 Partly cloudy - 24.6 1012.9 0.0
26/06:09pm ESE 13 15 - - - - 10 Partly cloudy - 24.8 1012.7 0.0
26/06:06pm ESE 13 15 - - - - 10 Partly cloudy - 24.7 1012.6 0.0
26/06:00pm ESE 13 15 - - - - 10 Partly cloudy - 24.8 1012.6 0.0
26/05:55pm ESE 13 15 - - - - 10 Partly cloudy - 24.8 1012.5 0.0
26/05:30pm ESE 12 13 - - - - 10 - - 24.9 1012.3 0.0
26/05:00pm ESE 10 12 - - - - 10 - - 25.2 1012.0 0.0
26/04:30pm ESE 11 13 - - - - 10 - - 25.4 1011.8 0.0
26/04:00pm SE 10 12 - - - - 10 - - 25.7 1011.6 0.0
26/03:49pm SE 11 12 - - - - 10 Partly cloudy - 25.7 1011.6 0.0
26/03:30pm SE 13 14 - - - - 10 Partly cloudy - 25.7 1011.5 0.0
26/03:18pm SE 12 14 - - - - 10 Partly cloudy - 25.9 1011.5 0.0
26/03:00pm SE 13 15 - - - - 10 Mostly clear - 25.8 1011.6 0.0
26/02:30pm SE 15 17 - - - - 10 - - 26.1 1011.6 0.0
26/02:00pm SE 17 19 - - - - 10 Partly cloudy - 25.7 1011.7 0.0
26/01:30pm SSE 17 20 - - - - 10 Partly cloudy - 25.8 1012.0 0.0
26/01:24pm SSE 17 20 - - - - 10 Partly cloudy - 26.0 1012.1 0.0
26/01:00pm SSE 17 20 - - - - 10 Partly cloudy - 25.3 1012.2 0.0
26/12:30pm SSE 17 21 - - - - 10 Partly cloudy - 25.3 1012.4 0.0
26/12:00pm SSE 17 20 - - - - 10 Cloudy - 25.1 1012.9 0.0
26/11:30am SSE 15 18 - - - - 10 Partly cloudy - 24.9 1013.3 0.0
26/11:00am SSE 15 18 - - - - 10 Partly cloudy - 24.7 1013.6 0.0
26/10:30am SSE 16 19 - - - - 10 Cloudy - 24.6 1013.9 0.0
26/10:00am SSE 16 19 - - - - 10 Cloudy - 24.7 1014.1 0.0
26/09:30am SSE 16 19 - - - - 10 Cloudy - 24.6 1014.0 0.0
26/09:00am SSE 16 17 - - - - 10 Mostly cloudy - 24.5 1013.9 14.6
26/08:30am SSE 13 16 - - - - 10 Cloudy - 23.8 1013.9 14.6
26/08:00am SSE 15 19 - - - - 10 Cloudy - 23.7 1013.6 14.6
26/07:30am SSE 15 19 - - - - 10 Cloudy - 23.4 1013.4 14.6
26/07:00am SSE 16 19 - - - - 10 Partly cloudy - 23.3 1013.1 14.6
26/06:30am SSE 15 19 - - - - 10 Partly cloudy - 23.3 1013.0 14.6
26/06:00am SSE 14 19 - - - - 10 Cloudy - 23.5 1012.9 14.6
26/05:30am SSE 15 18 - - - - 10 Partly cloudy - 23.6 1012.5 14.6
26/05:00am SSE 15 19 - - - - 10 Partly cloudy - 23.4 1012.3 14.6
26/04:52am SSE 14 18 - - - - 10 Partly cloudy - 23.5 1012.3 14.6
26/04:37am SSE 14 17 - - - - 10 Partly cloudy - 23.4 1012.3 14.6
26/04:30am SSE 13 17 - - - - 10 Partly cloudy - 23.4 1012.2 14.6
26/04:00am SSE 15 19 - - - - 10 Partly cloudy - 23.6 1012.2 14.4
26/03:30am S 13 17 - - - - 10 Partly cloudy - 23.7 1012.1 14.4
26/03:13am S 12 17 - - - - 10 Partly cloudy - 23.8 1012.3 14.2
26/03:00am S 12 17 - - - - 6 Cloudy - 23.8 1012.2 14.2
26/02:58am S 13 17 - - - - 6 Partly cloudy - 23.9 1012.3 14.2
26/02:30am S 13 16 - - - - 10 Partly cloudy - 23.9 1012.3 14.2
26/02:00am S 13 16 - - - - 10 Partly cloudy - 24.1 1012.3 14.2
26/01:30am S 13 17 - - - - 10 Partly cloudy - 24.0 1012.6 14.2
26/01:00am SSE 12 14 - - - - 10 Partly cloudy - 24.7 1013.1 14.2
26/12:30am SSE 10 12 - - - - 10 Partly cloudy - 24.9 1013.3 14.2
26/12:03am SSE 7 9 - - - - 10 Partly cloudy - 24.7 1013.5 14.2
26/12:00am SSE 7 8 - - - - 10 Cloudy - 24.7 1013.6 14.2
 
Date/Time
EST
Wind Sea
Height
m
Swell Vis
km
Cloud Weather Temp
°C
Press
hPa
Rain since
9am
mm
Dir  Spd
kts
Gust
kts
Height
m
Period
s
Dir
25/11:30pm SSE 9 10 - - - - 10 Partly cloudy - 24.7 1013.8 14.2
25/11:08pm SSE 9 10 - - - - 10 Partly cloudy - 24.9 1014.0 14.2
25/11:00pm SSE 8 9 - - - - 10 Partly cloudy - 24.9 1014.1 14.2
25/10:42pm S 9 11 - - - - 10 Partly cloudy - 24.8 1014.1 14.2
25/10:30pm S 9 11 - - - - 10 Partly cloudy - 24.7 1014.0 14.2
25/10:20pm S 9 11 - - - - 10 Partly cloudy - 24.5 1014.0 14.2
25/10:06pm S 10 11 - - - - 10 Partly cloudy - 24.5 1013.9 14.2
25/10:05pm S 10 11 - - - - 10 Partly cloudy - 24.6 1013.9 14.2
25/10:00pm S 9 11 - - - - 10 Partly cloudy - 24.5 1013.9 14.2
25/09:30pm S 9 11 - - - - 10 Partly cloudy - 24.7 1013.7 14.2
25/09:24pm S 9 11 - - - - 10 Partly cloudy - 24.5 1013.7 14.2
25/09:00pm S 7 8 - - - - 10 Mostly cloudy - 24.2 1013.6 14.2
25/08:30pm S 6 6 - - - - 10 Partly cloudy - 24.3 1013.7 14.2
25/08:00pm SE 3 4 - - - - 10 Partly cloudy - 24.2 1013.5 14.2
25/07:30pm SE 4 5 - - - - 10 Partly cloudy - 23.8 1013.0 14.2
25/07:00pm SE 5 6 - - - - 10 Partly cloudy - 23.8 1012.5 14.2
25/06:30pm SE 5 6 - - - - 10 Cloudy - 23.7 1012.3 14.2
25/06:00pm SSE 7 8 - - - - 10 Cloudy - 23.9 1012.1 14.2
25/05:30pm SSE 6 7 - - - - 10 Partly cloudy - 24.0 1012.0 14.2
25/05:22pm SSE 7 8 - - - - 10 Partly cloudy - 24.0 1012.0 14.2
25/05:09pm SSE 7 10 - - - - 10 Partly cloudy - 24.1 1011.9 14.2
25/05:00pm SSE 7 9 - - - - 10 Partly cloudy - 24.1 1011.8 14.2
25/04:30pm SSE 9 12 - - - - 10 Partly cloudy - 24.0 1011.6 14.2
25/04:00pm SSW 6 9 - - - - 10 Cloudy - 24.5 1011.5 14.2
25/03:30pm SSW 5 7 - - - - 10 Cloudy - 24.5 1011.3 14.2
25/03:00pm CALM 0 0 - - - - 10 Cloudy - 24.8 1011.1 14.2
25/02:30pm W 5 7 - - - - 10 Cloudy - 24.1 1011.2 14.2
25/02:05pm NW 6 9 - - - - 10 Partly cloudy - 23.7 1011.4 14.2
25/02:00pm NNW 5 8 - - - - 10 Partly cloudy - 23.9 1011.4 14.2
25/01:54pm NNE 4 6 - - - - 4 Partly cloudy - 23.9 1011.5 13.8
25/01:40pm NNE 14 26 - - - - 0.7 Partly cloudy - 23.2 1011.5 10.2
25/01:30pm N 11 17 - - - - 1 Partly cloudy - 23.4 1011.7 3.2
25/01:11pm NE 7 13 - - - - 6 Partly cloudy - 24.6 1011.9 0.0
25/01:00pm ESE 7 9 - - - - 9 Partly cloudy - 26.1 1012.0 0.0
25/12:51pm ESE 7 9 - - - - 10 Partly cloudy - 26.2 1012.1 0.0
25/12:43pm SE 7 8 - - - - 10 Partly cloudy - 26.3 1012.2 0.0
25/12:30pm SSE 8 10 - - - - 10 Partly cloudy - 26.0 1012.2 0.0
25/12:09pm SSE 6 8 - - - - 10 Partly cloudy - 26.4 1012.7 0.0
25/12:00pm SSE 7 9 - - - - 10 Cloudy - 27.0 1012.8 0.0
25/11:30am SE 6 8 - - - - 10 Partly cloudy - 26.9 1013.3 0.0
25/11:00am SSE 4 6 - - - - 10 Partly cloudy - 27.2 1013.7 0.0
25/10:30am SSE 6 11 - - - - 10 Partly cloudy - 26.7 1014.0 0.0
25/10:00am SSE 5 7 - - - - 10 Partly cloudy - 26.9 1014.1 0.0
25/09:45am SSE 5 6 - - - - 10 Partly cloudy - 26.8 1014.1 0.0
25/09:30am S 5 7 - - - - 10 Partly cloudy - 26.4 1014.0 0.0
25/09:27am S 6 7 - - - - 10 Partly cloudy - 26.0 1014.0 0.0
25/09:00am SSE 6 8 - - - - 10 Mostly clear - 26.1 1013.8 49.4
25/08:30am SSE 4 6 - - - - 10 Partly cloudy - 25.2 1013.6 49.4
25/08:07am SSW 3 6 - - - - 10 Partly cloudy - 24.9 1013.3 49.4
25/08:00am SSW 2 4 - - - - 10 Partly cloudy - 24.5 1013.2 49.4
25/07:30am SSW 5 7 - - - - 10 Partly cloudy - 23.8 1013.0 49.4
25/07:00am S 6 7 - - - - 10 Partly cloudy - 23.6 1012.8 49.4
25/06:57am S 6 7 - - - - 10 Partly cloudy - 23.6 1012.8 49.4
25/06:30am S 5 7 - - - - 10 - - 22.9 1012.7 49.4
25/06:00am S 7 9 - - - - 10 - - 22.8 1012.5 49.4
25/05:30am S 7 10 - - - - 10 Partly cloudy - 22.9 1012.1 49.4
25/05:00am S 7 9 - - - - 10 Partly cloudy - 22.6 1011.8 49.4
25/04:30am SSW 8 10 - - - - 10 Cloudy - 22.8 1011.6 49.4
25/04:01am WSW 8 10 - - - - 10 Partly cloudy - 22.7 1011.6 49.4
25/04:00am WSW 8 10 - - - - 10 Partly cloudy - 22.8 1011.6 49.4
25/03:56am SW 8 10 - - - - 10 Partly cloudy - 22.7 1011.7 49.4
25/03:37am SSW 6 8 - - - - 6 Partly cloudy - 22.5 1011.8 49.4
25/03:32am SSW 6 7 - - - - 10 Partly cloudy - 22.5 1011.8 49.4
25/03:30am SSW 6 9 - - - - 10 Partly cloudy - 22.5 1011.8 49.4
25/03:00am SW 7 9 - - - - 10 Cloudy Recent precip. 22.7 1011.6 49.2
25/02:30am S 6 11 - - - - 9 Partly cloudy - 22.6 1011.8 49.0
25/02:00am W 5 6 - - - - 3 Partly cloudy - 22.6 1012.1 48.2
25/01:57am WNW 4 6 - - - - 2 Partly cloudy - 22.6 1012.1 48.0
25/01:46am NE 3 5 - - - - 2 Partly cloudy - 22.6 1012.3 43.0
25/01:39am SW 4 6 - - - - 5 Partly cloudy - 22.6 1012.2 40.8
25/01:34am SW 4 6 - - - - 10 Partly cloudy - 22.6 1012.2 39.4
25/01:30am S 4 5 - - - - 10 Partly cloudy - 22.6 1012.3 39.2
25/01:00am NNW 3 5 - - - - 3 Partly cloudy - 22.6 1012.8 35.6
25/12:48am N 7 13 - - - - 3 Partly cloudy - 22.6 1012.9 33.6
25/12:38am NNE 10 13 - - - - 2 Partly cloudy - 22.6 1012.9 31.4
25/12:30am NNE 9 13 - - - - 3 Partly cloudy - 22.8 1012.9 28.8
25/12:02am ENE 7 10 - - - - 6 Partly cloudy - 23.1 1012.9 22.8
25/12:00am ENE 7 10 - - - - 7 Cloudy Rain 23.1 1012.9 22.6
 
Date/Time
EST
Wind Sea
Height
m
Swell Vis
km
Cloud Weather Temp
°C
Press
hPa
Rain since
9am
mm
Dir  Spd
kts
Gust
kts
Height
m
Period
s
Dir
24/11:56pm ENE 7 11 - - - - 8 Partly cloudy - 23.0 1013.0 22.6
24/11:30pm ESE 8 11 - - - - 10 Partly cloudy - 23.5 1013.2 22.0
24/11:00pm SE 5 7 - - - - 10 Partly cloudy - 23.7 1013.4 21.0
24/10:52pm SSE 5 7 - - - - 10 Partly cloudy - 23.6 1013.4 21.0
24/10:30pm SE 9 11 - - - - 10 Partly cloudy - 23.6 1013.5 21.0
24/10:23pm SE 9 10 - - - - 10 Partly cloudy - 23.7 1013.4 21.0
24/10:06pm ESE 6 9 - - - - 4 Partly cloudy - 23.9 1013.6 21.0
24/10:01pm ESE 8 13 - - - - 6 Partly cloudy - 23.8 1013.7 21.0
24/10:00pm ESE 8 13 - - - - 7 Partly cloudy - 23.8 1013.7 21.0
24/09:30pm ESE 9 13 - - - - 10 Partly cloudy - 23.9 1013.7 16.6
24/09:00pm S 5 9 - - - - 10 Cloudy - 24.3 1013.7 15.4
24/08:30pm S 7 9 - - - - 10 Partly cloudy - 24.0 1013.7 15.4
24/08:02pm SSW 4 6 - - - - 10 Partly cloudy - 24.1 1013.6 15.4
24/08:00pm S 5 7 - - - - 10 Partly cloudy - 24.0 1013.6 15.4
24/07:52pm S 7 8 - - - - 10 Partly cloudy - 24.1 1013.5 15.0
24/07:30pm SSW 7 11 - - - - 10 Partly cloudy - 24.1 1013.4 14.4
24/07:00pm SSW 6 12 - - - - 10 Partly cloudy - 24.1 1012.9 14.4
24/06:30pm SSW 9 12 - - - - 10 Partly cloudy - 23.9 1012.5 10.0
24/06:19pm SE 6 8 - - - - 10 Partly cloudy - 24.5 1012.4 8.2
24/06:00pm ESE 8 9 - - - - 10 Cloudy - 24.4 1012.2 8.2
24/05:30pm E 8 10 - - - - 10 Partly cloudy - 24.5 1012.2 8.2
24/05:00pm ENE 10 12 - - - - 10 Cloudy - 24.7 1011.9 8.2
24/04:30pm ENE 12 14 - - - - 10 Partly cloudy - 24.8 1011.8 8.2
24/04:11pm ENE 12 15 - - - - 10 Partly cloudy - 24.7 1011.6 8.2
24/04:00pm E 13 16 - - - - 10 Partly cloudy - 25.2 1011.6 8.2
24/03:30pm E 16 18 - - - - 10 Partly cloudy - 25.2 1011.6 8.2
24/03:00pm ESE 19 23 - - - - 10 Cloudy - 25.1 1011.4 8.2
24/02:40pm ESE 21 23 - - - - 6 Partly cloudy - 25.3 1011.4 8.2
24/02:30pm ESE 19 23 - - - - 10 Partly cloudy - 25.4 1011.4 8.2
24/02:00pm E 17 20 - - - - 10 Partly cloudy - 25.1 1011.8 8.2
24/01:47pm E 21 25 - - - - 10 Partly cloudy - 24.6 1011.8 8.2
24/01:42pm ESE 22 26 - - - - 10 Partly cloudy - 24.4 1011.8 8.2
24/01:30pm ESE 20 27 - - - - 3 Partly cloudy - 24.5 1012.0 8.2
24/01:24pm ESE 15 27 - - - - 7 Partly cloudy - 24.8 1012.1 4.0
24/01:08pm ESE 20 26 - - - - 6 Partly cloudy - 24.7 1012.4 3.0
24/01:00pm ESE 19 26 - - - - 10 Partly cloudy - 25.4 1012.3 2.8
24/12:30pm ESE 17 20 - - - - 10 Cloudy - 26.0 1012.9 2.8
24/12:00pm ESE 20 23 - - - - 10 Cloudy Recent precip. 25.2 1013.2 2.8
24/11:30am ESE 14 22 - - - - 10 Cloudy - 24.7 1013.7 2.6
24/11:08am SE 13 17 - - - - 10 Partly cloudy - 25.1 1014.0 2.6
24/11:02am ESE 15 17 - - - - 10 Partly cloudy - 25.0 1014.0 2.6
24/11:00am ESE 15 17 - - - - 10 Partly cloudy - 24.9 1014.0 2.6
24/10:48am ESE 17 21 - - - - 4 Partly cloudy - 24.2 1014.2 2.4
24/10:30am E 27 32 - - - - 5 Partly cloudy - 24.0 1014.2 0.0
24/10:27am ESE 25 32 - - - - 6 Partly cloudy - 24.2 1014.1 0.0
24/10:20am SE 15 25 - - - - 8 Partly cloudy - 25.1 1014.3 0.0
24/10:00am SE 15 18 - - - - 10 Partly cloudy - 25.3 1014.5 0.0
24/09:30am ESE 11 13 - - - - 10 Partly cloudy - 25.6 1014.9 0.0
24/09:00am ESE 16 19 - - - - 10 Cloudy - 25.0 1014.8 22.4
24/08:30am ESE 19 23 - - - - 10 Partly cloudy - 24.1 1014.5 22.4
24/08:27am E 19 23 - - - - 10 Partly cloudy - 24.1 1014.4 22.4
24/08:00am E 12 16 - - - - 10 Partly cloudy - 23.9 1014.3 22.4
24/07:58am E 13 18 - - - - 10 Partly cloudy - 23.8 1014.4 22.4
24/07:44am E 17 24 - - - - 6 Partly cloudy - 23.8 1014.2 21.4
24/07:41am ESE 16 24 - - - - 9 Partly cloudy - 24.0 1014.1 21.4
24/07:30am ESE 17 23 - - - - 9 Partly cloudy - 24.4 1014.0 20.8
24/07:00am SE 18 21 - - - - 10 Partly cloudy - 24.2 1013.9 20.8
24/06:54am SE 18 21 - - - - 10 Partly cloudy - 24.1 1013.8 20.8
24/06:49am SE 19 21 - - - - 10 Partly cloudy - 23.9 1013.8 20.8
24/06:48am SE 19 22 - - - - 9 Partly cloudy - 23.9 1013.8 20.8
24/06:30am ESE 24 30 - - - - 4 Partly cloudy - 23.6 1013.6 20.0
24/06:25am ESE 23 30 - - - - 6 Partly cloudy - 23.9 1013.4 19.8
24/06:20am ESE 18 30 - - - - 10 Partly cloudy - 24.1 1013.4 19.2
24/06:00am SE 17 20 - - - - 10 Cloudy Recent precip. 24.6 1013.3 19.0
24/05:30am SE 14 19 - - - - 10 Partly cloudy - 24.6 1013.1 18.8
24/05:00am SE 15 17 - - - - 10 Partly cloudy - 24.3 1012.9 18.8
24/04:59am SE 15 17 - - - - 10 Partly cloudy - 24.3 1012.9 18.8
24/04:45am SE 15 19 - - - - 6 Partly cloudy - 24.2 1012.9 18.8
24/04:43am SE 16 19 - - - - 6 Partly cloudy - 24.1 1012.9 18.8
24/04:30am SE 15 18 - - - - 10 Partly cloudy - 24.0 1012.8 18.8
24/04:19am SE 17 20 - - - - 10 Partly cloudy - 23.9 1012.8 18.8
24/04:00am ESE 23 28 - - - - 10 Partly cloudy - 24.1 1012.8 18.8
24/03:53am ESE 25 30 - - - - 10 Partly cloudy - 24.0 1012.7 18.8
24/03:40am ESE 22 28 - - - - 6 Partly cloudy - 24.1 1012.8 18.8
24/03:30am SE 18 26 - - - - 10 Partly cloudy - 24.7 1012.8 18.2
24/03:00am SE 19 21 - - - - 10 Cloudy - 24.7 1013.1 18.2
24/02:30am SE 17 21 - - - - 10 Partly cloudy - 24.3 1013.2 18.2
24/02:28am SE 18 21 - - - - 10 Partly cloudy - 24.2 1013.2 18.2
24/02:00am SE 20 24 - - - - 10 Partly cloudy - 24.2 1013.4 18.2
24/01:40am SE 19 21 - - - - 10 Partly cloudy - 23.7 1013.6 18.2
24/01:38am SE 19 21 - - - - 10 Partly cloudy - 23.6 1013.6 18.2
24/01:30am SE 20 23 - - - - 6 Partly cloudy - 23.5 1013.7 18.2
24/01:20am SE 22 31 - - - - 6 Partly cloudy - 23.9 1013.7 17.4
24/01:16am SE 19 29 - - - - 10 Partly cloudy - 24.6 1013.7 16.4
24/01:00am SE 19 23 - - - - 10 Partly cloudy - 24.5 1014.0 16.4
24/12:30am SE 19 21 - - - - 10 Partly cloudy - 24.4 1014.4 16.4
24/12:11am SE 18 21 - - - - 10 Partly cloudy - 24.5 1014.5 16.4
24/12:00am SE 17 22 - - - - 5 Cloudy Rain 24.3 1014.5 16.4
 
Date/Time
EST
Wind Sea
Height
m
Swell Vis
km
Cloud Weather Temp
°C
Press
hPa
Rain since
9am
mm
Dir  Spd
kts
Gust
kts
Height
m
Period
s
Dir
23/11:52pm ESE 15 19 - - - - 6 Partly cloudy - 24.3 1014.6 16.0
23/11:41pm ESE 13 16 - - - - 10 Partly cloudy - 24.2 1014.7 14.4
23/11:36pm ESE 13 16 - - - - 10 Partly cloudy - 24.3 1014.7 14.4
23/11:30pm ESE 15 18 - - - - 10 Partly cloudy - 24.2 1014.8 14.4
23/11:26pm ESE 15 19 - - - - 10 Partly cloudy - 24.2 1014.8 14.4
23/11:07pm ESE 19 23 - - - - 5 Partly cloudy - 24.5 1014.9 13.0
23/11:01pm ESE 20 24 - - - - 10 Partly cloudy - 25.4 1014.9 13.0
23/11:00pm ESE 20 24 - - - - 10 Partly cloudy - 25.3 1014.9 13.0
23/10:30pm ESE 22 25 - - - - 10 Partly cloudy - 25.3 1015.2 13.0
23/10:00pm SE 18 22 - - - - 10 Partly cloudy - 24.9 1015.4 13.0

Other formats

Comma delimited format used in spreadsheet applications
http://www.bom.gov.au/fwo/IDQ60701/IDQ60701.94368.axf

JavaScript Object Notation format (JSON) in row-major order
http://www.bom.gov.au/fwo/IDQ60701/IDQ60701.94368.json

Data quality

Most of these data are generated automatically and are frequently updated. Quality checks on data are not normally performed. It is possible for incorrect values to appear. Refer to information at About Latest Weather Observations and please check the disclaimer before using these data.